createdAt,value
2023-02-24T00:02:32.866Z,44.60
2023-02-24T00:05:58.273Z,46.70
2023-02-24T00:09:30.254Z,47.90
2023-02-24T00:13:30.968Z,48.20
2023-02-24T00:17:40.370Z,51.80
2023-02-24T00:21:12.359Z,42.70
2023-02-24T00:24:40.281Z,41.80
2023-02-24T00:28:15.139Z,41.10
2023-02-24T00:31:50.499Z,38.20
2023-02-24T00:35:23.732Z,36.00
2023-02-24T00:38:47.321Z,30.60
2023-02-24T00:42:26.236Z,32.30
2023-02-24T00:46:38.584Z,34.00
2023-02-24T00:50:31.333Z,34.90
2023-02-24T00:54:01.571Z,33.50
2023-02-24T00:57:42.086Z,32.50
2023-02-24T01:01:14.395Z,29.80
2023-02-24T01:05:07.028Z,33.70
2023-02-24T01:08:59.270Z,33.40
2023-02-24T01:12:59.673Z,35.00
2023-02-24T01:16:28.735Z,38.00
2023-02-24T01:20:14.186Z,39.80
2023-02-24T01:23:35.783Z,40.50
2023-02-24T01:27:00.458Z,39.50
2023-02-24T01:30:23.791Z,39.10
2023-02-24T01:33:49.417Z,42.20
2023-02-24T01:37:03.818Z,45.10
2023-02-24T01:40:40.623Z,40.00
2023-02-24T01:44:34.026Z,43.50
2023-02-24T01:48:00.228Z,44.80
2023-02-24T01:51:52.576Z,39.00
2023-02-24T01:55:47.097Z,38.80
2023-02-24T01:58:48.135Z,31.70
2023-02-24T02:01:58.614Z,35.80
2023-02-24T02:05:16.780Z,38.30
2023-02-24T02:08:59.747Z,32.50
2023-02-24T02:13:01.835Z,31.80
2023-02-24T02:17:06.221Z,32.40
2023-02-24T02:21:11.313Z,27.10
2023-02-24T02:24:52.374Z,31.20
2023-02-24T02:27:58.291Z,25.30
2023-02-24T02:31:42.248Z,26.60
2023-02-24T02:35:38.341Z,24.00
2023-02-24T02:39:28.331Z,19.30
2023-02-24T02:43:05.966Z,20.30
2023-02-24T02:46:23.978Z,18.90
2023-02-24T02:50:19.323Z,19.00
2023-02-24T02:54:18.977Z,17.20
2023-02-24T02:57:53.614Z,15.40
2023-02-24T03:01:16.594Z,14.90
2023-02-24T03:04:15.305Z,16.20
2023-02-24T03:07:49.977Z,14.60
2023-02-24T03:11:14.198Z,11.70
2023-02-24T03:14:57.776Z,11.20
2023-02-24T03:18:24.650Z,10.20
2023-02-24T03:22:12.284Z,11.90
2023-02-24T03:24:46.850Z,10.40
2023-02-24T03:28:20.274Z,8.90
2023-02-24T03:32:07.062Z,8.00
2023-02-24T03:35:58.928Z,8.30
2023-02-24T03:39:51.478Z,7.10
2023-02-24T03:43:16.850Z,8.00
2023-02-24T03:46:39.957Z,8.00
2023-02-24T03:49:37.653Z,7.40
2023-02-24T03:53:52.958Z,6.40
2023-02-24T03:58:03.677Z,4.70
2023-02-24T04:01:55.548Z,6.10
2023-02-24T04:05:57.133Z,5.90
2023-02-24T04:09:31.333Z,7.10
2023-02-24T04:13:36.715Z,5.70
2023-02-24T04:17:28.569Z,4.70
2023-02-24T04:21:14.326Z,6.60
2023-02-24T04:25:06.892Z,6.00
2023-02-24T04:28:44.939Z,5.90
2023-02-24T04:32:46.072Z,6.00
2023-02-24T04:36:55.644Z,5.50
2023-02-24T04:41:01.770Z,5.10
2023-02-24T04:44:51.433Z,4.30
2023-02-24T04:48:26.862Z,3.40
2023-02-24T04:51:55.862Z,4.10
2023-02-24T04:56:05.426Z,3.60
2023-02-24T05:00:07.582Z,4.00
2023-02-24T05:03:59.745Z,4.30
2023-02-24T05:06:57.571Z,3.90
2023-02-24T05:09:42.327Z,3.50
2023-02-24T05:13:20.045Z,2.60
2023-02-24T05:17:13.255Z,3.20
2023-02-24T05:20:39.890Z,2.60
2023-02-24T05:24:29.654Z,3.70
2023-02-24T05:27:30.174Z,3.10
2023-02-24T05:30:56.053Z,3.90
2023-02-24T05:34:54.919Z,6.10
2023-02-24T05:38:19.777Z,2.80
2023-02-24T05:42:22.566Z,4.00
2023-02-24T05:46:27.075Z,3.00
2023-02-24T05:49:39.781Z,4.50
2023-02-24T05:52:56.031Z,7.70
2023-02-24T05:55:58.778Z,5.30
2023-02-24T05:59:33.660Z,5.80
2023-02-24T06:02:51.037Z,7.20
2023-02-24T06:06:42.833Z,6.20
2023-02-24T06:10:35.114Z,7.30
2023-02-24T06:14:23.266Z,8.00
2023-02-24T06:17:41.356Z,5.20
2023-02-24T06:21:43.880Z,5.40
2023-02-24T06:25:24.786Z,6.50
2023-02-24T06:29:25.061Z,5.10
2023-02-24T06:32:26.666Z,4.20
2023-02-24T06:35:15.902Z,2.90
2023-02-24T06:38:49.190Z,4.00
2023-02-24T06:42:23.985Z,7.20
2023-02-24T06:46:33.436Z,6.60
2023-02-24T06:50:32.898Z,6.70
2023-02-24T06:54:36.340Z,9.50
2023-02-24T06:57:50.575Z,7.90
2023-02-24T07:01:08.942Z,5.10
2023-02-24T07:04:58.474Z,8.90
2023-02-24T07:08:32.862Z,12.80
2023-02-24T07:12:05.115Z,10.50
2023-02-24T07:16:11.147Z,8.90
2023-02-24T07:19:47.834Z,13.10
2023-02-24T07:23:58.565Z,11.30
2023-02-24T07:28:14.505Z,13.10
2023-02-24T07:32:24.335Z,13.50
2023-02-24T07:36:08.596Z,13.70
2023-02-24T07:40:07.361Z,16.70
2023-02-24T07:44:19.577Z,12.20
2023-02-24T07:48:29.674Z,14.70
2023-02-24T07:52:31.567Z,10.50
2023-02-24T07:56:01.219Z,11.90
2023-02-24T07:59:59.669Z,10.60
2023-02-24T08:03:49.925Z,13.40
2023-02-24T08:07:58.638Z,13.10
2023-02-24T08:12:01.447Z,11.70
2023-02-24T08:15:36.144Z,11.20
2023-02-24T08:19:38.963Z,12.30
2023-02-24T08:23:23.798Z,10.90
2023-02-24T08:27:33.651Z,15.80
2023-02-24T08:31:28.503Z,8.50
2023-02-24T08:35:31.099Z,10.30
2023-02-24T08:39:40.496Z,7.90
2023-02-24T08:43:55.684Z,16.00
2023-02-24T08:48:05.404Z,16.10
2023-02-24T08:51:29.213Z,15.30
2023-02-24T08:55:21.553Z,8.30
2023-02-24T08:59:35.336Z,12.00
2023-02-24T09:03:49.362Z,11.80
2023-02-24T09:11:10.301Z,16.40
2023-02-24T09:15:03.300Z,10.80
2023-02-24T09:19:11.106Z,14.70
2023-02-24T09:23:23.591Z,14.30
2023-02-24T09:27:31.977Z,14.90
2023-02-24T09:31:15.940Z,10.00
2023-02-24T09:35:23.969Z,12.90
2023-02-24T09:39:15.145Z,14.40
2023-02-24T09:42:47.293Z,11.70
2023-02-24T09:45:47.207Z,13.60
2023-02-24T09:49:30.403Z,12.80
2023-02-24T09:53:41.590Z,11.60
2023-02-24T09:57:43.738Z,14.60
2023-02-24T10:01:15.992Z,17.50
2023-02-24T10:05:03.344Z,13.10
2023-02-24T10:08:43.479Z,8.30
2023-02-24T10:12:55.506Z,15.60
2023-02-24T10:16:45.511Z,9.50
2023-02-24T10:20:38.102Z,13.70
2023-02-24T10:24:21.404Z,20.70
2023-02-24T10:28:33.375Z,13.10
2023-02-24T10:32:47.328Z,12.00
2023-02-24T10:36:51.698Z,8.80
2023-02-24T10:41:04.320Z,13.80
2023-02-24T10:45:03.372Z,12.60
2023-02-24T10:49:21.983Z,11.60
2023-02-24T10:53:54.960Z,10.30
2023-02-24T10:57:58.984Z,13.50
2023-02-24T11:01:44.665Z,14.40
2023-02-24T11:05:57.173Z,15.20
2023-02-24T11:10:10.425Z,9.90
2023-02-24T11:14:06.292Z,17.50
2023-02-24T11:18:11.242Z,14.90
2023-02-24T11:22:20.962Z,11.30
2023-02-24T11:26:07.105Z,14.60
2023-02-24T11:30:19.066Z,11.40
2023-02-24T11:37:56.010Z,12.40
2023-02-24T11:42:07.199Z,11.30
2023-02-24T11:45:42.852Z,13.90
2023-02-24T11:49:14.843Z,12.10
2023-02-24T11:53:16.028Z,15.00
2023-02-24T11:56:09.344Z,8.50
2023-02-24T11:59:58.273Z,16.10
2023-02-24T12:03:51.291Z,10.70
2023-02-24T12:07:40.585Z,16.40
2023-02-24T12:11:23.876Z,13.40
2023-02-24T12:15:06.620Z,14.00
2023-02-24T12:19:06.588Z,15.10
2023-02-24T12:22:34.799Z,14.90
2023-02-24T12:27:05.852Z,13.10
2023-02-24T12:31:13.676Z,15.10
2023-02-24T12:35:16.563Z,14.30
2023-02-24T12:39:31.761Z,13.20
2023-02-24T12:42:43.305Z,17.00
2023-02-24T12:46:16.952Z,15.50
2023-02-24T12:50:00.632Z,8.90
2023-02-24T12:53:43.779Z,14.90
2023-02-24T12:58:03.711Z,11.40
2023-02-24T13:02:17.626Z,13.30
2023-02-24T13:06:03.069Z,12.60
2023-02-24T13:10:01.390Z,15.00
2023-02-24T13:13:47.102Z,17.60
2023-02-24T13:17:45.066Z,15.60
2023-02-24T13:22:10.372Z,13.00
2023-02-24T13:25:59.832Z,16.10
2023-02-24T13:29:40.910Z,17.50
2023-02-24T13:33:44.951Z,11.90
2023-02-24T13:37:39.564Z,14.10
2023-02-24T13:41:46.575Z,13.60
2023-02-24T13:45:41.860Z,14.10
2023-02-24T13:49:27.254Z,12.10
2023-02-24T13:53:10.471Z,16.80
2023-02-24T13:56:57.188Z,19.90
2023-02-24T14:00:25.396Z,15.50
2023-02-24T14:04:27.304Z,16.00
2023-02-24T14:08:38.044Z,21.70
2023-02-24T14:12:09.347Z,18.70
2023-02-24T14:16:19.037Z,15.10
2023-02-24T14:20:18.730Z,11.00
2023-02-24T14:24:02.386Z,13.10
2023-02-24T14:28:14.555Z,19.40
2023-02-24T14:31:52.169Z,16.10
2023-02-24T14:35:48.299Z,15.50
2023-02-24T14:39:30.468Z,14.80
2023-02-24T14:43:06.421Z,12.20
2023-02-24T14:46:55.340Z,17.50
2023-02-24T14:50:53.883Z,12.20
2023-02-24T14:55:03.709Z,12.70
2023-02-24T14:59:13.967Z,13.20
2023-02-24T15:02:44.160Z,11.80
2023-02-24T15:06:04.057Z,18.60
2023-02-24T15:09:38.566Z,17.90
2023-02-24T15:13:38.194Z,12.10
2023-02-24T15:17:50.533Z,13.40
2023-02-24T15:22:01.437Z,15.70
2023-02-24T15:26:23.106Z,14.50
2023-02-24T15:30:01.314Z,18.70
2023-02-24T15:34:16.539Z,18.90
2023-02-24T15:37:28.601Z,17.10
2023-02-24T15:40:58.579Z,15.10
2023-02-24T15:45:05.911Z,20.00
2023-02-24T15:49:17.365Z,18.00
2023-02-24T15:53:26.565Z,16.90
2023-02-24T15:57:10.215Z,19.20
2023-02-24T16:00:59.915Z,29.30
2023-02-24T16:05:09.671Z,26.30
2023-02-24T16:09:00.869Z,21.20
2023-02-24T16:12:41.178Z,18.70
2023-02-24T16:16:43.694Z,20.70
2023-02-24T16:20:35.763Z,12.20
2023-02-24T16:24:46.190Z,17.70
2023-02-24T16:28:46.711Z,16.50
2023-02-24T16:32:53.304Z,23.10
2023-02-24T16:37:03.267Z,23.00
2023-02-24T16:40:40.761Z,20.80
2023-02-24T16:44:50.395Z,20.00
2023-02-24T16:48:18.422Z,19.00
2023-02-24T16:51:48.913Z,18.50
2023-02-24T16:54:59.428Z,19.80
2023-02-24T16:58:52.814Z,14.30
2023-02-24T17:03:05.223Z,14.30
2023-02-24T17:06:42.795Z,15.50
2023-02-24T17:09:51.717Z,19.30
2023-02-24T17:13:02.320Z,16.10
2023-02-24T17:21:21.273Z,14.30
2023-02-24T17:25:08.236Z,19.70
2023-02-24T17:28:57.664Z,16.90
2023-02-24T17:33:07.106Z,15.70
2023-02-24T17:37:13.162Z,16.50
2023-02-24T17:41:11.723Z,14.10
2023-02-24T17:44:56.387Z,15.50
2023-02-24T17:48:55.899Z,15.80
2023-02-24T17:53:05.668Z,17.60
2023-02-24T17:56:57.941Z,19.80
2023-02-24T18:00:52.964Z,17.20
2023-02-24T18:05:02.592Z,15.80
2023-02-24T18:09:00.480Z,25.70
2023-02-24T18:12:49.905Z,16.50
2023-02-24T18:16:59.516Z,16.00
2023-02-24T18:20:44.471Z,19.30
2023-02-24T18:24:29.471Z,17.90
2023-02-24T18:28:31.507Z,18.40
2023-02-24T18:32:41.425Z,22.00
2023-02-24T18:36:04.875Z,21.40
2023-02-24T18:40:08.721Z,19.90
2023-02-24T18:44:18.072Z,23.30
2023-02-24T18:48:20.607Z,23.20
2023-02-24T18:52:18.652Z,24.60
2023-02-24T18:56:07.935Z,21.20
2023-02-24T19:00:12.094Z,23.10
2023-02-24T19:04:11.406Z,18.80
2023-02-24T19:08:13.888Z,18.90
2023-02-24T19:12:14.155Z,21.50
2023-02-24T19:16:23.956Z,24.60
2023-02-24T19:20:16.625Z,21.30
2023-02-24T19:23:50.508Z,24.60
2023-02-24T19:28:00.609Z,21.70
2023-02-24T19:32:10.207Z,29.40
2023-02-24T19:36:18.407Z,25.20
2023-02-24T19:40:28.016Z,27.20
2023-02-24T19:44:00.780Z,23.60
2023-02-24T19:48:10.198Z,22.80
2023-02-24T19:51:56.865Z,19.30
2023-02-24T19:55:39.617Z,18.30
2023-02-24T19:59:32.311Z,21.70
2023-02-24T20:03:40.256Z,14.40
2023-02-24T20:07:50.095Z,17.00
2023-02-24T20:11:59.563Z,14.10
2023-02-24T20:15:40.467Z,14.30
2023-02-24T20:19:43.024Z,13.00
2023-02-24T20:23:55.387Z,12.00
2023-02-24T20:28:04.938Z,11.90
2023-02-24T20:32:14.869Z,15.60
2023-02-24T20:36:24.892Z,12.30
2023-02-24T20:40:07.400Z,12.50
2023-02-24T20:43:58.519Z,10.60
2023-02-24T20:47:53.434Z,12.50
2023-02-24T20:51:44.491Z,13.30
2023-02-24T20:55:54.149Z,15.20
2023-02-24T21:00:02.549Z,13.20
2023-02-24T21:04:13.140Z,13.00
2023-02-24T21:08:22.670Z,13.80
2023-02-24T21:12:36.487Z,14.80
2023-02-24T21:16:28.241Z,11.50
2023-02-24T21:20:27.874Z,14.40
2023-02-24T21:24:33.313Z,14.70
2023-02-24T21:28:43.171Z,13.00
2023-02-24T21:32:52.714Z,14.50
2023-02-24T21:36:51.015Z,13.60
2023-02-24T21:41:00.668Z,9.60
2023-02-24T21:45:02.957Z,15.40
2023-02-24T21:49:12.532Z,14.90
2023-02-24T21:53:21.200Z,14.60
2023-02-24T21:57:30.683Z,16.10
2023-02-24T22:01:40.269Z,12.10
2023-02-24T22:05:49.805Z,15.70
2023-02-24T22:09:35.120Z,13.90
2023-02-24T22:13:37.171Z,14.10
2023-02-24T22:17:37.985Z,15.10
2023-02-24T22:21:45.549Z,13.70
2023-02-24T22:25:43.997Z,21.60
2023-02-24T22:29:53.431Z,11.40
2023-02-24T22:34:03.050Z,10.50
2023-02-24T22:38:12.523Z,12.60
2023-02-24T22:42:22.289Z,13.20
2023-02-24T22:46:37.513Z,10.50
2023-02-24T22:50:47.294Z,10.60
2023-02-24T22:54:56.519Z,10.30
2023-02-24T22:59:05.933Z,10.00
2023-02-24T23:02:48.550Z,11.00
2023-02-24T23:06:40.011Z,10.90
2023-02-24T23:10:49.895Z,10.70
2023-02-24T23:14:59.556Z,11.60
2023-02-24T23:18:52.079Z,13.40
2023-02-24T23:23:01.668Z,13.50
2023-02-24T23:27:03.888Z,13.40
2023-02-24T23:31:03.304Z,16.60
2023-02-24T23:35:05.646Z,15.10
2023-02-24T23:39:05.153Z,14.90
2023-02-24T23:42:54.368Z,15.60
2023-02-24T23:47:04.108Z,13.50
2023-02-24T23:51:12.412Z,13.70
2023-02-24T23:55:02.125Z,13.80
2023-02-24T23:59:11.539Z,13.10
